Vulcan, Michigan
Current Conditions -  °F | °C
As of 10:34 PM on Saturday 22 Nov 2014 (Local Time) from KIMT Reporting Station
Haze Haze  
Wind Chill: 30°   Ceiling: 400
Heat Index: 35°   Visibility: 3mi
Dew Point: 33°   Wind: 6mph
Humidity: 92%   Direction: 170°S
Pressure: 29.71"   Gusts: NA
Location:  45.78°N, 87.86°W
Report Text: KIMT 230434Z AUTO 17005KT 3SM BR OVC004 02/01 A2971 RMK AO2 T00170006
Loading
Personal Weather Stations






























Interactive Weather Map New forecast layout! Learn more

10-Day Weather Forecast

Advertisements
Track Severe Weather on mobile